KWWD/WWD METAR and TAF weather

Enter ICAO airport designator
Station Type Date Time Source
KWWD METAR 2019/05/20 09:56 UTC NOAA

KWWD 200956Z AUTO 20009KT 10SM CLR 21/18 A2990 RMK AO2 SLP126 T02110183


Station Type Date Time Source
KWWD Decoded METAR 2019/05/20 09:56 UTC NOAA

Wildwood, Cape May County Airport, NJ, United States (KWWD) 39-01N 074-55W
May 20, 2019 - 05:56 AM EDT / 2019.05.20 0956 UTC
Wind: from the SSW (200 degrees) at 10 MPH (9 KT):0
Visibility: 10 mile(s):0
Sky conditions: clear
Temperature: 70.0 F (21.1 C)
Dew Point: 64.9 F (18.3 C)
Relative Humidity: 84%
Pressure (altimeter): 29.9 in. Hg (1012 hPa)
ob: KWWD 200956Z AUTO 20009KT 10SM CLR 21/18 A2990 RMK AO2 SLP126 T02110183
cycle: 10

Station Type Date Time Source
KWWD TAF UTC NOAA

Error!

Example: see airport list